Time;durP1;ratioP1;P1;durP2;ratioP2;P2;SDS_P1;SDS_P2;PMS_P1;PMS_P2;Temp;Humidity;BMP_temperature;BMP_pressure;BME280_temperature;BME280_humidity;BME280_pressure;Samples;Min_cycle;Max_cycle;Signal;HPM_P1;HPM_P2
2023/04/19 00:02:24;;;;;;;;;;;12.30;99.90;;;;;;4830843;29;19938;-64
2023/04/19 00:04:49;;;;;;;;;;;12.30;99.90;;;;;;4843282;29;19957;-63
2023/04/19 00:07:16;;;;;;;;;;;12.20;99.90;;;;;;4828195;29;21059;-64
2023/04/19 00:09:41;;;;;;;;;;;12.20;99.90;;;;;;4840403;29;19968;-63
2023/04/19 00:12:07;;;;;;;;;;;12.10;99.90;;;;;;4822523;29;20688;-64
2023/04/19 00:14:32;;;;;;;;;;;12.10;99.90;;;;;;4837221;29;19934;-64
2023/04/19 00:16:58;;;;;;;;;;;12.00;99.90;;;;;;4840437;29;19964;-65
2023/04/19 00:19:23;;;;;;;;;;;11.90;99.90;;;;;;4832156;29;20058;-64
2023/04/19 00:21:49;;;;;;;;;;;11.90;99.90;;;;;;4832462;29;20411;-64
2023/04/19 00:24:14;;;;;;;;;;;11.90;99.90;;;;;;4835198;29;19943;-63
2023/04/19 00:26:40;;;;;;;;;;;11.80;99.90;;;;;;4841643;29;19950;-63
2023/04/19 00:29:05;;;;;;;;;;;11.80;99.90;;;;;;4835143;29;19994;-63
2023/04/19 00:31:31;;;;;;;;;;;11.80;99.90;;;;;;4837599;29;19948;-62
2023/04/19 00:33:56;;;;;;;;;;;11.80;99.90;;;;;;4838116;29;19994;-64
2023/04/19 00:36:22;;;;;;;;;;;11.90;99.90;;;;;;4842819;29;20005;-62
2023/04/19 00:38:48;;;;;;;;;;;11.90;99.90;;;;;;4838553;29;19923;-63
2023/04/19 00:41:15;;;;;;;;;;;12.00;99.90;;;;;;4834948;29;19955;-63
2023/04/19 00:43:40;;;;;;;;;;;12.10;99.90;;;;;;4837644;29;20314;-63
2023/04/19 00:46:06;;;;;;;;;;;12.10;99.90;;;;;;4834139;29;19920;-63
2023/04/19 00:48:35;;;;;;;;;;;12.10;99.90;;;;;;4833526;29;20010;-63
2023/04/19 00:51:00;;;;;;;;;;;12.10;99.90;;;;;;4833301;29;19942;-63
2023/04/19 00:53:26;;;;;;;;;;;12.10;99.90;;;;;;4835938;29;20464;-63
2023/04/19 00:55:52;;;;;;;;;;;12.10;99.90;;;;;;4839941;29;19998;-63
2023/04/19 00:58:18;;;;;;;;;;;12.10;99.90;;;;;;4831817;29;19956;-63
2023/04/19 01:00:43;;;;;;;;;;;12.00;99.90;;;;;;4839843;29;20009;-64
2023/04/19 01:03:09;;;;;;;;;;;11.90;99.90;;;;;;4838019;29;20206;-64
2023/04/19 01:05:34;;;;;;;;;;;11.60;99.90;;;;;;4837203;29;19960;-63
2023/04/19 01:08:00;;;;;;;;;;;11.40;99.90;;;;;;4833477;29;20087;-64
2023/04/19 01:10:26;;;;;;;;;;;11.20;99.90;;;;;;4835390;29;19957;-64
2023/04/19 01:12:51;;;;;;;;;;;11.20;99.90;;;;;;4833037;29;19950;-64
2023/04/19 01:15:17;;;;;;;;;;;11.20;99.90;;;;;;4839986;29;20400;-63
2023/04/19 01:17:43;;;;;;;;;;;11.10;99.90;;;;;;4837292;29;19961;-64
2023/04/19 01:20:09;;;;;;;;;;;11.10;99.90;;;;;;4829456;29;19942;-64
2023/04/19 01:22:36;;;;;;;;;;;11.10;99.90;;;;;;4835940;29;19944;-62
2023/04/19 01:25:03;;;;;;;;;;;11.10;99.90;;;;;;4825630;29;19945;-63
2023/04/19 01:27:28;;;;;;;;;;;11.10;99.90;;;;;;4835498;29;19936;-63
2023/04/19 01:29:54;;;;;;;;;;;11.00;99.90;;;;;;4823058;29;19945;-62
2023/04/19 01:32:19;;;;;;;;;;;10.80;99.90;;;;;;4834571;29;19946;-62
2023/04/19 01:34:45;;;;;;;;;;;10.70;99.90;;;;;;4823290;29;19987;-64
2023/04/19 01:37:11;;;;;;;;;;;10.60;99.90;;;;;;4821960;29;19986;-64
2023/04/19 01:39:37;;;;;;;;;;;10.60;99.90;;;;;;4810367;29;19943;-63
2023/04/19 01:42:03;;;;;;;;;;;10.60;99.90;;;;;;4825073;29;19939;-64
2023/04/19 01:44:28;;;;;;;;;;;10.60;99.90;;;;;;4829049;29;19977;-63
2023/04/19 01:46:54;;;;;;;;;;;10.60;99.90;;;;;;4824456;29;19974;-63
2023/04/19 01:49:20;;;;;;;;;;;10.60;99.90;;;;;;4829409;29;20045;-63
2023/04/19 01:51:46;;;;;;;;;;;10.70;99.90;;;;;;4823601;29;20510;-63
2023/04/19 01:54:12;;;;;;;;;;;10.70;99.90;;;;;;4822782;29;20532;-63
2023/04/19 01:56:37;;;;;;;;;;;10.80;99.90;;;;;;4825675;29;19939;-62
2023/04/19 01:59:03;;;;;;;;;;;10.80;99.90;;;;;;4825864;29;19912;-62
2023/04/19 02:01:28;;;;;;;;;;;10.80;99.90;;;;;;4827246;29;19920;-62
2023/04/19 02:03:54;;;;;;;;;;;10.70;99.90;;;;;;4828456;29;19916;-62
2023/04/19 02:06:19;;;;;;;;;;;10.60;99.90;;;;;;4822697;29;19916;-62
2023/04/19 02:08:45;;;;;;;;;;;10.60;99.90;;;;;;4822798;29;19915;-62
2023/04/19 02:11:13;;;;;;;;;;;10.50;99.90;;;;;;4823736;29;19924;-61
2023/04/19 02:13:39;;;;;;;;;;;10.40;99.90;;;;;;4826845;29;19920;-62
2023/04/19 02:16:05;;;;;;;;;;;10.20;99.90;;;;;;4820305;29;19930;-62
2023/04/19 02:18:31;;;;;;;;;;;10.20;99.90;;;;;;4823608;29;19995;-62
2023/04/19 02:21:00;;;;;;;;;;;10.20;99.90;;;;;;4826073;29;19920;-62
2023/04/19 02:23:26;;;;;;;;;;;10.30;99.90;;;;;;4829319;29;19946;-62
2023/04/19 02:25:52;;;;;;;;;;;10.40;99.90;;;;;;4825879;29;20384;-62
2023/04/19 02:28:17;;;;;;;;;;;10.50;99.90;;;;;;4825731;29;20627;-62
2023/04/19 02:30:43;;;;;;;;;;;10.70;99.90;;;;;;4826627;29;19999;-63
2023/04/19 02:33:09;;;;;;;;;;;10.60;99.90;;;;;;4821487;29;19919;-64
2023/04/19 02:35:34;;;;;;;;;;;10.50;99.90;;;;;;4822086;29;20412;-63
2023/04/19 02:38:01;;;;;;;;;;;10.60;99.90;;;;;;4827164;29;19938;-63
2023/04/19 02:40:27;;;;;;;;;;;10.50;99.90;;;;;;4832379;29;19916;-63
2023/04/19 02:42:52;;;;;;;;;;;10.50;99.90;;;;;;4827036;29;19923;-63
2023/04/19 02:45:18;;;;;;;;;;;10.40;99.90;;;;;;4826878;29;19920;-64
2023/04/19 02:47:45;;;;;;;;;;;10.40;99.90;;;;;;4830387;29;20375;-64
2023/04/19 02:50:11;;;;;;;;;;;10.30;99.90;;;;;;4823834;29;19920;-64
2023/04/19 02:52:36;;;;;;;;;;;10.30;99.90;;;;;;4826560;29;19927;-63
2023/04/19 02:55:03;;;;;;;;;;;10.30;99.90;;;;;;4828641;29;20038;-63
2023/04/19 02:57:29;;;;;;;;;;;10.40;99.90;;;;;;4826723;29;20183;-63
2023/04/19 02:59:54;;;;;;;;;;;10.20;99.90;;;;;;4828690;29;19939;-64
2023/04/19 03:02:20;;;;;;;;;;;10.10;99.90;;;;;;4827524;29;19992;-63
2023/04/19 03:04:46;;;;;;;;;;;10.00;99.90;;;;;;4830418;29;19995;-65
2023/04/19 03:07:12;;;;;;;;;;;10.00;99.90;;;;;;4830412;29;20834;-65
2023/04/19 03:09:38;;;;;;;;;;;9.90;99.90;;;;;;4831016;29;19958;-65
2023/04/19 03:12:04;;;;;;;;;;;9.90;99.90;;;;;;4826809;29;19959;-64
2023/04/19 03:14:29;;;;;;;;;;;9.80;99.90;;;;;;4830089;29;19996;-64
2023/04/19 03:16:55;;;;;;;;;;;9.80;99.90;;;;;;4822868;29;19967;-64
2023/04/19 03:19:20;;;;;;;;;;;9.90;99.90;;;;;;4830407;29;19943;-64
2023/04/19 03:21:47;;;;;;;;;;;9.90;99.90;;;;;;4829265;29;19965;-64
2023/04/19 03:24:12;;;;;;;;;;;9.90;99.90;;;;;;4825810;29;19920;-64
2023/04/19 03:26:38;;;;;;;;;;;9.90;99.90;;;;;;4828140;29;19935;-64
2023/04/19 03:29:03;;;;;;;;;;;9.90;99.90;;;;;;4826632;29;19912;-64
2023/04/19 03:31:29;;;;;;;;;;;9.90;99.90;;;;;;4828577;29;21548;-64
2023/04/19 03:33:54;;;;;;;;;;;9.90;99.90;;;;;;4827280;29;19920;-64
2023/04/19 03:36:20;;;;;;;;;;;10.00;99.90;;;;;;4823111;29;19961;-64
2023/04/19 03:38:45;;;;;;;;;;;10.00;99.90;;;;;;4830484;29;20378;-65
2023/04/19 03:41:22;;;;;;;;;;;10.10;99.90;;;;;;4827448;29;19920;-63
2023/04/19 03:43:47;;;;;;;;;;;10.10;99.90;;;;;;4821794;29;19920;-64
2023/04/19 03:46:13;;;;;;;;;;;10.20;99.90;;;;;;4823686;29;19964;-63
2023/04/19 03:48:38;;;;;;;;;;;10.40;99.90;;;;;;4825825;29;21530;-64
2023/04/19 03:51:04;;;;;;;;;;;10.40;99.90;;;;;;4827974;29;19916;-64
2023/04/19 03:53:30;;;;;;;;;;;10.40;99.90;;;;;;4828262;29;19944;-65
2023/04/19 03:55:55;;;;;;;;;;;10.40;99.90;;;;;;4826272;29;19920;-62
2023/04/19 03:58:21;;;;;;;;;;;10.30;99.90;;;;;;4824967;29;19921;-62
2023/04/19 04:00:46;;;;;;;;;;;10.40;99.90;;;;;;4827933;29;19921;-62
2023/04/19 04:03:12;;;;;;;;;;;10.40;99.90;;;;;;4824220;29;19920;-62
2023/04/19 04:05:38;;;;;;;;;;;10.40;99.90;;;;;;4825262;29;20377;-62
2023/04/19 04:08:03;;;;;;;;;;;10.30;99.90;;;;;;4821159;29;19912;-62
2023/04/19 04:10:29;;;;;;;;;;;10.20;99.90;;;;;;4823110;29;19921;-62
2023/04/19 04:12:54;;;;;;;;;;;10.20;99.90;;;;;;4815251;29;20653;-62
2023/04/19 04:15:20;;;;;;;;;;;10.10;99.90;;;;;;4817606;29;19917;-62
2023/04/19 04:17:45;;;;;;;;;;;10.10;99.90;;;;;;4823159;29;19987;-62
2023/04/19 04:20:12;;;;;;;;;;;10.10;99.90;;;;;;4823846;29;20378;-62
2023/04/19 04:22:47;;;;;;;;;;;10.10;99.90;;;;;;4812708;29;19954;-61
2023/04/19 04:25:14;;;;;;;;;;;10.00;99.90;;;;;;4822172;29;19997;-62
2023/04/19 04:27:41;;;;;;;;;;;10.10;99.90;;;;;;4823794;29;19948;-61
2023/04/19 04:30:08;;;;;;;;;;;10.00;99.90;;;;;;4824957;29;20097;-62
2023/04/19 04:32:37;;;;;;;;;;;10.10;99.90;;;;;;4834384;29;20011;-63
2023/04/19 04:35:03;;;;;;;;;;;10.10;99.90;;;;;;4840031;29;20488;-62
2023/04/19 04:37:32;;;;;;;;;;;10.30;99.90;;;;;;4842564;29;19928;-62
2023/04/19 04:39:58;;;;;;;;;;;10.40;99.90;;;;;;4832900;29;19917;-62
2023/04/19 04:42:24;;;;;;;;;;;10.60;99.90;;;;;;4841750;29;19927;-62
2023/04/19 04:44:50;;;;;;;;;;;10.70;99.90;;;;;;4833134;29;19916;-61
2023/04/19 04:47:16;;;;;;;;;;;10.80;99.90;;;;;;4841705;29;19916;-62
2023/04/19 04:49:41;;;;;;;;;;;10.90;99.90;;;;;;4825614;29;19924;-62
2023/04/19 04:52:07;;;;;;;;;;;11.10;99.90;;;;;;4839508;29;19941;-62
2023/04/19 04:54:33;;;;;;;;;;;11.20;99.90;;;;;;4838140;29;20393;-63
2023/04/19 04:56:59;;;;;;;;;;;11.30;99.90;;;;;;4839036;29;19932;-62
2023/04/19 04:59:25;;;;;;;;;;;11.40;99.90;;;;;;4813442;29;20002;-62
2023/04/19 05:01:51;;;;;;;;;;;11.50;99.90;;;;;;4825890;29;21255;-62
2023/04/19 05:04:17;;;;;;;;;;;11.50;99.90;;;;;;4824637;29;19916;-62
2023/04/19 05:06:43;;;;;;;;;;;11.60;99.90;;;;;;4829215;29;20510;-63
2023/04/19 05:09:09;;;;;;;;;;;11.50;99.90;;;;;;4828487;29;19928;-64
2023/04/19 05:11:34;;;;;;;;;;;11.50;99.90;;;;;;4820611;29;20179;-64
2023/04/19 05:14:00;;;;;;;;;;;11.60;99.90;;;;;;4831944;29;19928;-64
2023/04/19 05:16:26;;;;;;;;;;;11.70;99.90;;;;;;4834594;29;19928;-63
2023/04/19 05:18:51;;;;;;;;;;;11.70;99.90;;;;;;4826216;29;19983;-63
2023/04/19 05:21:17;;;;;;;;;;;11.70;99.90;;;;;;4830208;29;19912;-63
2023/04/19 05:23:43;;;;;;;;;;;11.80;99.90;;;;;;4825978;29;20121;-62
2023/04/19 05:26:11;;;;;;;;;;;11.80;99.90;;;;;;4826412;29;20416;-62
2023/04/19 05:28:37;;;;;;;;;;;11.80;99.90;;;;;;4825007;29;20577;-62
2023/04/19 05:31:03;;;;;;;;;;;11.80;99.90;;;;;;4826950;29;19927;-62
2023/04/19 05:33:28;;;;;;;;;;;11.90;99.90;;;;;;4827773;29;19916;-62
2023/04/19 05:35:54;;;;;;;;;;;12.00;99.90;;;;;;4836261;29;19928;-62
2023/04/19 05:38:19;;;;;;;;;;;12.00;99.90;;;;;;4844472;29;19923;-61
2023/04/19 05:40:45;;;;;;;;;;;12.10;99.90;;;;;;4846129;29;19916;-61
2023/04/19 05:43:10;;;;;;;;;;;12.10;99.90;;;;;;4837721;29;19920;-62
2023/04/19 05:45:36;;;;;;;;;;;12.20;99.90;;;;;;4842537;29;19976;-61
2023/04/19 05:48:01;;;;;;;;;;;12.20;99.90;;;;;;4838404;29;19932;-62
2023/04/19 05:50:27;;;;;;;;;;;12.20;99.90;;;;;;4846122;29;19912;-62
2023/04/19 05:52:52;;;;;;;;;;;12.30;99.90;;;;;;4840355;29;19976;-62
2023/04/19 05:55:18;;;;;;;;;;;12.30;99.90;;;;;;4839729;29;19923;-61
2023/04/19 05:57:43;;;;;;;;;;;12.40;99.90;;;;;;4835106;29;19955;-62
2023/04/19 06:00:10;;;;;;;;;;;12.40;99.90;;;;;;4831339;29;19935;-61
2023/04/19 06:02:35;;;;;;;;;;;12.40;99.90;;;;;;4831109;29;19981;-61
2023/04/19 06:05:03;;;;;;;;;;;12.30;99.90;;;;;;4832465;29;20002;-61
2023/04/19 06:07:29;;;;;;;;;;;12.40;99.90;;;;;;4833103;29;19916;-62
2023/04/19 06:09:55;;;;;;;;;;;12.40;99.90;;;;;;4831917;29;19944;-62
2023/04/19 06:12:20;;;;;;;;;;;12.50;99.90;;;;;;4831375;29;19920;-61
2023/04/19 06:14:46;;;;;;;;;;;12.50;99.90;;;;;;4834697;29;19920;-62
2023/04/19 06:17:13;;;;;;;;;;;12.70;99.90;;;;;;4827823;29;20281;-62
2023/04/19 06:19:38;;;;;;;;;;;12.70;99.90;;;;;;4827976;29;19916;-62
2023/04/19 06:22:04;;;;;;;;;;;12.70;99.90;;;;;;4829884;29;20420;-62
2023/04/19 06:24:29;;;;;;;;;;;12.80;99.90;;;;;;4833846;29;20445;-62
2023/04/19 06:26:55;;;;;;;;;;;12.90;99.90;;;;;;4835391;29;20507;-61
2023/04/19 06:29:22;;;;;;;;;;;13.00;99.90;;;;;;4841512;29;19916;-62
2023/04/19 06:31:48;;;;;;;;;;;13.10;99.90;;;;;;4834327;29;19921;-62
2023/04/19 06:34:13;;;;;;;;;;;13.20;99.90;;;;;;4838360;29;19972;-62
2023/04/19 06:36:39;;;;;;;;;;;13.30;99.90;;;;;;4844132;29;19935;-62
2023/04/19 06:39:04;;;;;;;;;;;13.50;99.90;;;;;;4846756;29;19926;-61
2023/04/19 06:41:30;;;;;;;;;;;13.50;99.90;;;;;;4844844;29;19920;-62
2023/04/19 06:43:56;;;;;;;;;;;13.40;99.90;;;;;;4843048;29;20379;-63
2023/04/19 06:46:21;;;;;;;;;;;13.40;99.90;;;;;;4841979;29;19916;-63
2023/04/19 06:48:47;;;;;;;;;;;13.50;99.90;;;;;;4844885;29;19959;-63
2023/04/19 06:51:12;;;;;;;;;;;13.60;99.90;;;;;;4836426;29;20058;-63
2023/04/19 06:53:38;;;;;;;;;;;13.70;99.90;;;;;;4843313;29;20112;-63
2023/04/19 06:56:03;;;;;;;;;;;13.90;99.90;;;;;;4836906;29;20286;-63
2023/04/19 06:58:30;;;;;;;;;;;13.90;99.90;;;;;;4841368;29;19926;-63
2023/04/19 07:00:56;;;;;;;;;;;14.00;99.90;;;;;;4825674;29;20019;-63
2023/04/19 07:03:22;;;;;;;;;;;14.10;99.90;;;;;;4826151;29;20387;-63
2023/04/19 07:05:47;;;;;;;;;;;14.20;99.90;;;;;;4835762;29;20865;-63
2023/04/19 07:08:13;;;;;;;;;;;14.30;99.90;;;;;;4830852;29;19915;-63
2023/04/19 07:10:38;;;;;;;;;;;14.40;99.90;;;;;;4833198;29;19924;-64
2023/04/19 07:13:04;;;;;;;;;;;14.40;99.90;;;;;;4836109;29;19912;-64
2023/04/19 07:15:30;;;;;;;;;;;14.40;99.90;;;;;;4842423;29;19927;-64
2023/04/19 07:17:55;;;;;;;;;;;14.40;99.90;;;;;;4825460;29;20437;-63
2023/04/19 07:20:21;;;;;;;;;;;14.40;99.90;;;;;;4836017;29;19923;-63
2023/04/19 07:22:47;;;;;;;;;;;14.50;99.90;;;;;;4823250;29;20490;-64
2023/04/19 07:25:13;;;;;;;;;;;14.60;99.90;;;;;;4838945;29;20057;-63
2023/04/19 07:27:38;;;;;;;;;;;14.70;99.90;;;;;;4840032;29;20010;-64
2023/04/19 07:30:05;;;;;;;;;;;14.80;99.90;;;;;;4834785;29;20346;-63
2023/04/19 07:32:31;;;;;;;;;;;14.90;99.90;;;;;;4828135;29;19923;-63
2023/04/19 07:34:56;;;;;;;;;;;15.00;99.90;;;;;;4832972;29;19920;-63
2023/04/19 07:37:22;;;;;;;;;;;15.00;99.90;;;;;;4844267;29;19979;-63
2023/04/19 07:39:48;;;;;;;;;;;15.10;99.80;;;;;;4841087;29;20361;-61
2023/04/19 07:42:13;;;;;;;;;;;15.10;99.10;;;;;;4835849;29;20066;-62
2023/04/19 07:44:39;;;;;;;;;;;15.20;98.00;;;;;;4838980;29;19942;-62
2023/04/19 07:47:05;;;;;;;;;;;15.10;97.00;;;;;;4837739;29;19916;-62
2023/04/19 07:49:32;;;;;;;;;;;15.20;97.90;;;;;;4835835;29;20425;-62
2023/04/19 07:52:01;;;;;;;;;;;15.20;99.20;;;;;;4834222;29;20416;-62
2023/04/19 07:54:27;;;;;;;;;;;15.30;99.40;;;;;;4837488;29;21969;-62
2023/04/19 07:56:53;;;;;;;;;;;15.40;99.30;;;;;;4838643;29;20381;-62
2023/04/19 07:59:19;;;;;;;;;;;15.40;99.80;;;;;;4836366;29;19978;-61
2023/04/19 08:01:44;;;;;;;;;;;15.50;99.60;;;;;;4836646;29;21795;-62
2023/04/19 08:04:10;;;;;;;;;;;15.60;99.60;;;;;;4835577;29;19927;-62
2023/04/19 08:06:38;;;;;;;;;;;15.60;99.40;;;;;;4835783;29;19947;-62
2023/04/19 08:09:04;;;;;;;;;;;15.70;99.50;;;;;;4833705;29;20075;-62
2023/04/19 08:11:30;;;;;;;;;;;15.70;98.30;;;;;;4832547;29;20069;-62
2023/04/19 08:13:55;;;;;;;;;;;15.70;98.50;;;;;;4834928;29;19966;-62
2023/04/19 08:16:21;;;;;;;;;;;15.60;98.40;;;;;;4842419;29;20446;-62
2023/04/19 08:18:50;;;;;;;;;;;15.60;97.40;;;;;;4837676;29;19927;-62
2023/04/19 08:21:16;;;;;;;;;;;15.50;97.40;;;;;;4833608;29;19952;-62
2023/04/19 08:23:41;;;;;;;;;;;15.60;97.00;;;;;;4831678;29;20042;-63
2023/04/19 08:26:07;;;;;;;;;;;15.60;96.80;;;;;;4834054;29;20408;-62
2023/04/19 08:28:33;;;;;;;;;;;15.60;96.90;;;;;;4833167;29;20306;-63
2023/04/19 08:30:58;;;;;;;;;;;15.70;96.30;;;;;;4829760;29;19916;-63
2023/04/19 08:33:24;;;;;;;;;;;15.70;96.60;;;;;;4829680;29;20223;-63
2023/04/19 08:35:49;;;;;;;;;;;15.80;95.70;;;;;;4833344;29;20358;-63
2023/04/19 08:38:15;;;;;;;;;;;16.00;96.90;;;;;;4837642;29;20677;-63
2023/04/19 08:40:44;;;;;;;;;;;16.10;96.80;;;;;;4834127;29;19920;-63
2023/04/19 08:43:10;;;;;;;;;;;16.20;97.00;;;;;;4826150;29;19966;-74
2023/04/19 08:45:36;;;;;;;;;;;16.40;96.20;;;;;;4836451;29;19916;-63
2023/04/19 08:48:02;;;;;;;;;;;16.50;95.10;;;;;;4810145;29;19920;-62
2023/04/19 08:50:29;;;;;;;;;;;16.40;95.50;;;;;;4839512;29;19976;-62
2023/04/19 08:52:54;;;;;;;;;;;16.30;94.20;;;;;;4837847;29;19924;-62
2023/04/19 08:55:20;;;;;;;;;;;16.30;96.10;;;;;;4838641;29;19923;-63
2023/04/19 08:57:45;;;;;;;;;;;16.30;94.90;;;;;;4836890;29;20450;-63
2023/04/19 09:00:11;;;;;;;;;;;16.30;94.40;;;;;;4838885;29;19920;-62
2023/04/19 09:03:03;;;;;;;;;;;16.20;94.90;;;;;;4839127;29;19924;-62
2023/04/19 09:05:28;;;;;;;;;;;16.20;94.30;;;;;;4830381;29;19920;-62
2023/04/19 09:08:10;;;;;;;;;;;16.20;94.30;;;;;;4837944;29;19920;-63
2023/04/19 09:10:44;;;;;;;;;;;16.20;95.00;;;;;;4839477;29;19962;-62
2023/04/19 09:13:12;;;;;;;;;;;16.10;94.70;;;;;;4838915;29;19923;-62
2023/04/19 09:15:39;;;;;;;;;;;16.10;94.80;;;;;;4836603;29;19920;-64
2023/04/19 09:18:06;;;;;;;;;;;16.00;94.80;;;;;;4840314;29;19924;-64
2023/04/19 09:20:35;;;;;;;;;;;16.00;95.50;;;;;;4823876;29;20297;-64
2023/04/19 09:23:04;;;;;;;;;;;16.00;96.10;;;;;;4835558;29;19917;-64
2023/04/19 09:25:30;;;;;;;;;;;16.00;96.30;;;;;;4839516;29;19912;-64
2023/04/19 09:28:07;;;;;;;;;;;16.00;96.30;;;;;;4833784;29;20591;-64
2023/04/19 09:30:33;;;;;;;;;;;15.90;96.50;;;;;;4838249;29;20449;-64
2023/04/19 09:32:58;;;;;;;;;;;15.90;95.50;;;;;;4836111;29;19912;-65
2023/04/19 09:35:38;;;;;;;;;;;15.90;96.10;;;;;;4841942;29;19917;-64
2023/04/19 09:38:04;;;;;;;;;;;15.80;95.80;;;;;;4835769;29;25644;-64
2023/04/19 09:40:29;;;;;;;;;;;15.80;96.40;;;;;;4832500;29;19916;-65
2023/04/19 09:42:55;;;;;;;;;;;15.80;95.60;;;;;;4836881;29;20392;-65
2023/04/19 09:45:21;;;;;;;;;;;15.80;94.50;;;;;;4841048;29;20790;-65
2023/04/19 09:47:59;;;;;;;;;;;15.80;95.10;;;;;;4840104;29;19924;-64
2023/04/19 09:50:25;;;;;;;;;;;15.80;94.40;;;;;;4836229;29;20658;-64
2023/04/19 09:52:51;;;;;;;;;;;15.80;94.90;;;;;;4839677;29;19916;-64
2023/04/19 09:55:17;;;;;;;;;;;15.80;94.70;;;;;;4836444;29;19938;-63
2023/04/19 09:57:43;;;;;;;;;;;16.00;95.90;;;;;;4839623;29;19924;-64
2023/04/19 10:00:12;;;;;;;;;;;16.20;95.50;;;;;;4836452;29;20358;-64
2023/04/19 10:02:39;;;;;;;;;;;16.40;95.80;;;;;;4826680;29;20394;-64
2023/04/19 10:05:06;;;;;;;;;;;16.50;94.70;;;;;;4833432;29;19958;-64
2023/04/19 10:07:32;;;;;;;;;;;16.60;94.30;;;;;;4836788;29;20010;-63
2023/04/19 10:09:58;;;;;;;;;;;16.80;95.00;;;;;;4829205;29;20404;-63
2023/04/19 10:12:25;;;;;;;;;;;17.00;94.00;;;;;;4832029;29;19916;-63
2023/04/19 10:14:51;;;;;;;;;;;17.00;95.00;;;;;;4830248;29;19957;-63
2023/04/19 10:17:17;;;;;;;;;;;17.10;93.70;;;;;;4844781;29;19924;-63
2023/04/19 10:19:44;;;;;;;;;;;17.10;93.70;;;;;;4833170;29;20658;-62
2023/04/19 10:22:10;;;;;;;;;;;17.20;93.90;;;;;;4835372;29;20019;-64
2023/04/19 10:24:36;;;;;;;;;;;17.30;93.80;;;;;;4837325;29;20006;-62
2023/04/19 10:27:02;;;;;;;;;;;17.40;94.10;;;;;;4839107;29;19920;-63
2023/04/19 10:29:46;;;;;;;;;;;17.40;92.40;;;;;;4839625;29;19938;-62
2023/04/19 10:32:15;;;;;;;;;;;17.40;91.30;;;;;;4835211;29;19920;-63
2023/04/19 10:34:41;;;;;;;;;;;17.40;91.80;;;;;;4833662;29;20630;-62
2023/04/19 10:37:09;;;;;;;;;;;17.40;87.50;;;;;;4835029;29;19920;-62
2023/04/19 10:39:39;;;;;;;;;;;17.40;86.00;;;;;;4828320;29;19997;-63
2023/04/19 10:42:04;;;;;;;;;;;17.40;80.90;;;;;;4835845;29;19915;-63
2023/04/19 10:44:30;;;;;;;;;;;17.50;85.20;;;;;;4835748;29;19956;-63
2023/04/19 10:46:57;;;;;;;;;;;17.60;82.40;;;;;;4836141;29;19920;-63
2023/04/19 10:49:22;;;;;;;;;;;17.60;81.20;;;;;;4833843;29;19928;-63
2023/04/19 10:51:51;;;;;;;;;;;17.60;84.10;;;;;;4836942;29;19926;-62
2023/04/19 10:54:30;;;;;;;;;;;17.70;87.90;;;;;;4820701;29;20128;-62
2023/04/19 10:56:58;;;;;;;;;;;17.70;89.50;;;;;;4823668;29;19940;-63
2023/04/19 10:59:23;;;;;;;;;;;17.80;89.90;;;;;;4827989;29;19944;-62
2023/04/19 11:01:49;;;;;;;;;;;17.90;89.80;;;;;;4833146;29;19920;-62
2023/04/19 11:04:18;;;;;;;;;;;18.00;86.40;;;;;;4832187;29;20058;-63
2023/04/19 11:06:50;;;;;;;;;;;18.00;87.40;;;;;;4829761;29;19908;-62
2023/04/19 11:09:34;;;;;;;;;;;18.10;91.40;;;;;;4835592;29;19916;-62
2023/04/19 11:12:00;;;;;;;;;;;18.20;91.00;;;;;;4840863;29;19935;-62
2023/04/19 11:14:26;;;;;;;;;;;18.20;81.20;;;;;;4827699;29;19949;-62
2023/04/19 11:16:51;;;;;;;;;;;18.10;83.50;;;;;;4846301;29;19924;-62
2023/04/19 11:19:17;;;;;;;;;;;18.20;90.10;;;;;;4848091;29;19955;-62
2023/04/19 11:21:46;;;;;;;;;;;18.20;87.60;;;;;;4830086;29;19919;-62
2023/04/19 11:24:11;;;;;;;;;;;18.20;90.70;;;;;;4847715;29;19919;-62
2023/04/19 11:26:37;;;;;;;;;;;18.30;90.50;;;;;;4844388;29;19934;-62
2023/04/19 11:29:05;;;;;;;;;;;18.30;90.20;;;;;;4845088;29;19972;-63
2023/04/19 11:31:33;;;;;;;;;;;18.40;90.20;;;;;;4842258;29;19948;-63
2023/04/19 11:33:59;;;;;;;;;;;18.50;91.70;;;;;;4844186;29;19984;-63
2023/04/19 11:36:25;;;;;;;;;;;18.60;88.70;;;;;;4847748;29;19924;-63
2023/04/19 11:38:51;;;;;;;;;;;18.70;88.40;;;;;;4841373;29;21200;-62
2023/04/19 11:41:17;;;;;;;;;;;18.70;85.30;;;;;;4835435;29;19922;-63
2023/04/19 11:43:45;;;;;;;;;;;18.70;84.10;;;;;;4839226;29;19916;-63
2023/04/19 11:46:12;;;;;;;;;;;18.60;86.20;;;;;;4835517;29;19952;-63
2023/04/19 11:48:38;;;;;;;;;;;18.50;87.50;;;;;;4836314;29;20069;-63
2023/04/19 11:51:04;;;;;;;;;;;18.60;87.20;;;;;;4833859;29;19920;-63
2023/04/19 11:53:30;;;;;;;;;;;18.70;85.00;;;;;;4831706;29;19972;-63
2023/04/19 11:56:02;;;;;;;;;;;18.80;86.90;;;;;;4829542;29;20107;-63
2023/04/19 11:58:39;;;;;;;;;;;18.80;84.50;;;;;;4834919;29;19924;-63
2023/04/19 12:01:05;;;;;;;;;;;18.80;84.50;;;;;;4834496;29;19916;-63
2023/04/19 12:03:31;;;;;;;;;;;18.80;84.00;;;;;;4833327;29;19922;-63
2023/04/19 12:06:02;;;;;;;;;;;18.90;85.90;;;;;;4827211;29;19916;-63
2023/04/19 12:08:31;;;;;;;;;;;18.80;88.60;;;;;;4830957;29;20043;-63
2023/04/19 12:10:58;;;;;;;;;;;18.80;86.30;;;;;;4837519;29;19916;-64
2023/04/19 12:13:26;;;;;;;;;;;18.90;86.90;;;;;;4839830;29;19916;-63
2023/04/19 12:15:52;;;;;;;;;;;19.00;89.30;;;;;;4848497;29;20341;-63
2023/04/19 12:18:17;;;;;;;;;;;18.80;91.40;;;;;;4846079;29;19924;-64
2023/04/19 12:20:44;;;;;;;;;;;18.70;93.10;;;;;;4846702;29;20024;-64
2023/04/19 12:23:12;;;;;;;;;;;18.80;91.40;;;;;;4843079;29;19980;-64
2023/04/19 12:25:38;;;;;;;;;;;18.70;91.00;;;;;;4835329;29;20465;-64
2023/04/19 12:28:04;;;;;;;;;;;18.60;92.30;;;;;;4841407;29;19920;-63
2023/04/19 12:30:29;;;;;;;;;;;18.50;93.90;;;;;;4822293;29;20387;-63
2023/04/19 12:32:55;;;;;;;;;;;18.50;94.40;;;;;;4832050;29;19920;-64
2023/04/19 12:35:24;;;;;;;;;;;18.50;93.30;;;;;;4837106;29;19923;-64
2023/04/19 12:37:53;;;;;;;;;;;18.30;93.40;;;;;;4831553;29;20404;-63
2023/04/19 12:40:19;;;;;;;;;;;18.20;94.00;;;;;;4819693;29;19912;-62
2023/04/19 12:42:45;;;;;;;;;;;18.20;93.20;;;;;;4838134;29;19922;-62
2023/04/19 12:45:11;;;;;;;;;;;18.30;95.60;;;;;;4834555;29;19920;-63
2023/04/19 12:47:37;;;;;;;;;;;18.40;95.50;;;;;;4824572;29;20417;-62
2023/04/19 12:50:03;;;;;;;;;;;18.50;93.60;;;;;;4836555;29;19916;-63
2023/04/19 12:52:28;;;;;;;;;;;18.50;93.90;;;;;;4830496;29;20386;-63
2023/04/19 12:54:54;;;;;;;;;;;18.50;94.40;;;;;;4837375;29;20447;-63
2023/04/19 12:57:19;;;;;;;;;;;18.50;92.90;;;;;;4839119;29;19995;-63
2023/04/19 12:59:45;;;;;;;;;;;18.40;90.00;;;;;;4823373;29;19912;-63
2023/04/19 13:02:10;;;;;;;;;;;18.20;90.00;;;;;;4834903;29;19980;-62
2023/04/19 13:04:36;;;;;;;;;;;18.00;90.50;;;;;;4842350;29;19914;-63
2023/04/19 13:07:01;;;;;;;;;;;17.90;90.30;;;;;;4840607;29;19917;-63
2023/04/19 13:09:27;;;;;;;;;;;17.70;87.70;;;;;;4832269;29;20392;-63
2023/04/19 13:11:59;;;;;;;;;;;17.50;86.80;;;;;;4832882;29;19916;-62
2023/04/19 13:14:27;;;;;;;;;;;17.40;88.50;;;;;;4841482;29;19927;-62
2023/04/19 13:16:53;;;;;;;;;;;17.40;90.60;;;;;;4837360;29;20346;-63
2023/04/19 13:19:19;;;;;;;;;;;17.30;91.10;;;;;;4831311;29;19928;-63
2023/04/19 13:21:44;;;;;;;;;;;17.30;92.10;;;;;;4836445;29;19916;-62
2023/04/19 13:24:10;;;;;;;;;;;17.30;92.90;;;;;;4830575;29;19924;-62
2023/04/19 13:26:36;;;;;;;;;;;17.40;95.40;;;;;;4822476;29;20389;-62
2023/04/19 13:29:01;;;;;;;;;;;17.40;96.10;;;;;;4831316;29;19920;-63
2023/04/19 13:31:27;;;;;;;;;;;17.20;97.20;;;;;;4828028;29;19920;-63
2023/04/19 13:33:53;;;;;;;;;;;17.20;99.30;;;;;;4829419;29;20404;-63
2023/04/19 13:36:18;;;;;;;;;;;17.10;99.20;;;;;;4833831;29;19920;-63
2023/04/19 13:38:44;;;;;;;;;;;17.20;99.90;;;;;;4831553;29;20032;-63
2023/04/19 13:41:10;;;;;;;;;;;17.30;99.90;;;;;;4833127;29;19936;-63
2023/04/19 13:43:35;;;;;;;;;;;17.40;99.90;;;;;;4820312;29;19926;-63
2023/04/19 13:46:01;;;;;;;;;;;17.50;99.90;;;;;;4818977;29;19916;-64
2023/04/19 13:48:27;;;;;;;;;;;17.50;99.90;;;;;;4826552;29;20312;-64
2023/04/19 13:50:54;;;;;;;;;;;17.30;99.90;;;;;;4837048;29;20016;-63
2023/04/19 13:53:19;;;;;;;;;;;17.10;99.90;;;;;;4829960;29;19921;-63
2023/04/19 13:55:45;;;;;;;;;;;17.10;99.90;;;;;;4830923;29;19916;-63
2023/04/19 13:58:11;;;;;;;;;;;17.10;99.90;;;;;;4839670;29;20395;-63
2023/04/19 14:00:36;;;;;;;;;;;17.10;99.90;;;;;;4828655;29;19920;-63
2023/04/19 14:03:02;;;;;;;;;;;17.10;99.90;;;;;;4822251;29;20304;-63
2023/04/19 14:05:28;;;;;;;;;;;17.10;99.90;;;;;;4830492;29;20449;-64
2023/04/19 14:07:53;;;;;;;;;;;17.20;99.90;;;;;;4834239;29;19922;-64
2023/04/19 14:10:19;;;;;;;;;;;17.20;99.90;;;;;;4827711;29;19928;-64
2023/04/19 14:12:45;;;;;;;;;;;17.10;99.90;;;;;;4820061;29;19920;-64
2023/04/19 14:15:11;;;;;;;;;;;17.00;99.90;;;;;;4835183;29;20614;-63